SKRH/RCH METAR and TAF weather

Enter ICAO airport designator
Station Type Date Time Source
SKRH METAR 2019/04/18 23:00 UTC NOAA

SKRH 182300Z 11012KT 9999 FEW020 BKN200 31/20 A2978


Station Type Date Time Source
SKRH Decoded METAR 2019/04/18 23:00 UTC NOAA

Riohacha / Almirante Padilla, Colombia (SKRH) 11-32N 072-56W 4M
Apr 18, 2019 - 07:00 PM EDT / 2019.04.18 2300 UTC
Wind: from the ESE (110 degrees) at 14 MPH (12 KT):0
Visibility: greater than 7 mile(s):0
Sky conditions: mostly cloudy
Temperature: 87 F (31 C)
Dew Point: 68 F (20 C)
Relative Humidity: 52%
Pressure (altimeter): 29.78 in. Hg (1008 hPa)
ob: SKRH 182300Z 11012KT 9999 FEW020 BKN200 31/20 A2978
cycle: 23

Station Type Date Time Source
SKRH TAF 2015/07/31 18:51 UTC NOAA

TAF SKRH 311700Z 3118/0118 07010KT 9999 SCT017
TEMPO 3120/0103 09015KT CAVOK
TEMPO 0109/0114 9000 BKN015 TX36/3118Z TN28/0110Z

Example: see airport list